sensor_id;sensor_type;location;lat;lon;timestamp;temperature;humidity
6291;DHT22;3178;48.730;8.990;2023-03-19T00:01:04;10.30;99.90
6291;DHT22;3178;48.730;8.990;2023-03-19T00:03:31;10.30;99.90
6291;DHT22;3178;48.730;8.990;2023-03-19T00:05:56;10.20;99.90
6291;DHT22;3178;48.730;8.990;2023-03-19T00:08:22;10.20;99.90
6291;DHT22;3178;48.730;8.990;2023-03-19T00:10:48;10.20;99.90
6291;DHT22;3178;48.730;8.990;2023-03-19T00:13:14;10.20;99.90
6291;DHT22;3178;48.730;8.990;2023-03-19T00:15:39;10.30;99.90
6291;DHT22;3178;48.730;8.990;2023-03-19T00:18:06;10.30;99.90
6291;DHT22;3178;48.730;8.990;2023-03-19T00:20:32;10.20;99.90
6291;DHT22;3178;48.730;8.990;2023-03-19T00:22:57;10.20;99.90
6291;DHT22;3178;48.730;8.990;2023-03-19T00:25:23;10.20;99.90
6291;DHT22;3178;48.730;8.990;2023-03-19T00:27:48;10.20;99.90
6291;DHT22;3178;48.730;8.990;2023-03-19T00:30:14;10.10;99.90
6291;DHT22;3178;48.730;8.990;2023-03-19T00:32:40;10.20;99.90
6291;DHT22;3178;48.730;8.990;2023-03-19T00:35:06;10.20;99.90
6291;DHT22;3178;48.730;8.990;2023-03-19T00:37:33;10.20;99.90
6291;DHT22;3178;48.730;8.990;2023-03-19T00:39:59;10.20;99.90
6291;DHT22;3178;48.730;8.990;2023-03-19T00:42:24;10.20;99.90
6291;DHT22;3178;48.730;8.990;2023-03-19T00:44:50;10.20;99.90
6291;DHT22;3178;48.730;8.990;2023-03-19T00:47:16;10.20;99.90
6291;DHT22;3178;48.730;8.990;2023-03-19T00:49:41;10.20;99.90
6291;DHT22;3178;48.730;8.990;2023-03-19T00:52:07;10.20;99.90
6291;DHT22;3178;48.730;8.990;2023-03-19T00:54:33;10.20;99.90
6291;DHT22;3178;48.730;8.990;2023-03-19T00:56:59;10.30;99.90
6291;DHT22;3178;48.730;8.990;2023-03-19T00:59:25;10.30;99.90
6291;DHT22;3178;48.730;8.990;2023-03-19T01:01:51;10.30;99.90
6291;DHT22;3178;48.730;8.990;2023-03-19T01:04:16;10.30;99.90
6291;DHT22;3178;48.730;8.990;2023-03-19T01:06:43;10.30;99.90
6291;DHT22;3178;48.730;8.990;2023-03-19T01:09:09;10.30;99.90
6291;DHT22;3178;48.730;8.990;2023-03-19T01:11:35;10.30;99.90
6291;DHT22;3178;48.730;8.990;2023-03-19T01:14:01;10.30;99.90
6291;DHT22;3178;48.730;8.990;2023-03-19T01:16:27;10.30;99.90
6291;DHT22;3178;48.730;8.990;2023-03-19T01:18:53;10.30;99.90
6291;DHT22;3178;48.730;8.990;2023-03-19T01:21:19;10.30;99.90
6291;DHT22;3178;48.730;8.990;2023-03-19T01:23:45;10.30;99.90
6291;DHT22;3178;48.730;8.990;2023-03-19T01:26:10;10.30;99.90
6291;DHT22;3178;48.730;8.990;2023-03-19T01:28:37;10.20;99.90
6291;DHT22;3178;48.730;8.990;2023-03-19T01:31:05;10.20;99.90
6291;DHT22;3178;48.730;8.990;2023-03-19T01:33:31;10.20;99.90
6291;DHT22;3178;48.730;8.990;2023-03-19T01:35:58;10.20;99.90
6291;DHT22;3178;48.730;8.990;2023-03-19T01:38:27;10.20;99.90
6291;DHT22;3178;48.730;8.990;2023-03-19T01:40:52;10.20;99.90
6291;DHT22;3178;48.730;8.990;2023-03-19T01:43:20;10.20;99.90
6291;DHT22;3178;48.730;8.990;2023-03-19T01:45:49;10.20;99.90
6291;DHT22;3178;48.730;8.990;2023-03-19T01:48:40;10.20;99.90
6291;DHT22;3178;48.730;8.990;2023-03-19T01:51:08;10.20;99.90
6291;DHT22;3178;48.730;8.990;2023-03-19T01:53:37;10.20;99.90
6291;DHT22;3178;48.730;8.990;2023-03-19T01:56:08;10.20;99.90
6291;DHT22;3178;48.730;8.990;2023-03-19T01:58:36;10.30;99.90
6291;DHT22;3178;48.730;8.990;2023-03-19T02:01:03;10.30;99.90
6291;DHT22;3178;48.730;8.990;2023-03-19T02:03:29;10.30;99.90
6291;DHT22;3178;48.730;8.990;2023-03-19T02:05:55;10.30;99.90
6291;DHT22;3178;48.730;8.990;2023-03-19T02:08:22;10.20;99.90
6291;DHT22;3178;48.730;8.990;2023-03-19T02:10:50;10.10;99.90
6291;DHT22;3178;48.730;8.990;2023-03-19T02:13:17;9.90;99.90
6291;DHT22;3178;48.730;8.990;2023-03-19T02:15:43;9.70;99.90
6291;DHT22;3178;48.730;8.990;2023-03-19T02:18:09;9.70;99.90
6291;DHT22;3178;48.730;8.990;2023-03-19T02:26:11;9.70;99.90
6291;DHT22;3178;48.730;8.990;2023-03-19T02:28:41;9.70;99.90
6291;DHT22;3178;48.730;8.990;2023-03-19T02:31:08;9.70;99.90
6291;DHT22;3178;48.730;8.990;2023-03-19T02:33:34;9.80;99.90
6291;DHT22;3178;48.730;8.990;2023-03-19T02:36:01;9.80;99.90
6291;DHT22;3178;48.730;8.990;2023-03-19T02:38:29;9.80;99.90
6291;DHT22;3178;48.730;8.990;2023-03-19T02:41:02;9.80;99.90
6291;DHT22;3178;48.730;8.990;2023-03-19T02:43:33;9.90;99.90
6291;DHT22;3178;48.730;8.990;2023-03-19T02:46:03;9.90;99.90
6291;DHT22;3178;48.730;8.990;2023-03-19T02:48:29;9.90;99.90
6291;DHT22;3178;48.730;8.990;2023-03-19T02:50:56;9.90;99.90
6291;DHT22;3178;48.730;8.990;2023-03-19T02:53:22;9.90;99.90
6291;DHT22;3178;48.730;8.990;2023-03-19T02:55:47;10.00;99.90
6291;DHT22;3178;48.730;8.990;2023-03-19T02:58:13;10.00;99.90
6291;DHT22;3178;48.730;8.990;2023-03-19T03:00:39;10.00;99.90
6291;DHT22;3178;48.730;8.990;2023-03-19T03:03:05;10.00;99.90
6291;DHT22;3178;48.730;8.990;2023-03-19T03:05:32;10.00;99.90
6291;DHT22;3178;48.730;8.990;2023-03-19T03:07:58;10.00;99.90
6291;DHT22;3178;48.730;8.990;2023-03-19T03:10:24;10.00;99.90
6291;DHT22;3178;48.730;8.990;2023-03-19T03:12:49;9.90;99.90
6291;DHT22;3178;48.730;8.990;2023-03-19T03:15:15;9.90;99.90
6291;DHT22;3178;48.730;8.990;2023-03-19T03:17:42;9.90;99.90
6291;DHT22;3178;48.730;8.990;2023-03-19T03:20:10;9.90;99.90
6291;DHT22;3178;48.730;8.990;2023-03-19T03:22:36;9.90;99.90
6291;DHT22;3178;48.730;8.990;2023-03-19T03:25:02;9.90;99.90
6291;DHT22;3178;48.730;8.990;2023-03-19T03:27:28;9.90;99.90
6291;DHT22;3178;48.730;8.990;2023-03-19T03:29:54;9.90;99.90
6291;DHT22;3178;48.730;8.990;2023-03-19T03:32:19;9.90;99.90
6291;DHT22;3178;48.730;8.990;2023-03-19T03:34:45;9.90;99.90
6291;DHT22;3178;48.730;8.990;2023-03-19T03:37:11;9.90;99.90
6291;DHT22;3178;48.730;8.990;2023-03-19T03:39:37;9.90;99.90
6291;DHT22;3178;48.730;8.990;2023-03-19T03:42:03;9.90;99.90
6291;DHT22;3178;48.730;8.990;2023-03-19T03:44:29;9.90;99.90
6291;DHT22;3178;48.730;8.990;2023-03-19T03:46:55;9.90;99.90
6291;DHT22;3178;48.730;8.990;2023-03-19T03:49:21;9.90;99.90
6291;DHT22;3178;48.730;8.990;2023-03-19T03:51:47;10.00;99.90
6291;DHT22;3178;48.730;8.990;2023-03-19T03:54:12;10.00;99.90
6291;DHT22;3178;48.730;8.990;2023-03-19T03:56:38;9.90;99.90
6291;DHT22;3178;48.730;8.990;2023-03-19T03:59:03;9.90;99.90
6291;DHT22;3178;48.730;8.990;2023-03-19T04:01:29;9.90;99.90
6291;DHT22;3178;48.730;8.990;2023-03-19T04:03:55;9.90;99.90
6291;DHT22;3178;48.730;8.990;2023-03-19T04:06:22;9.90;99.90
6291;DHT22;3178;48.730;8.990;2023-03-19T04:08:48;9.90;99.90
6291;DHT22;3178;48.730;8.990;2023-03-19T04:11:14;9.90;99.90
6291;DHT22;3178;48.730;8.990;2023-03-19T04:13:39;9.90;99.90
6291;DHT22;3178;48.730;8.990;2023-03-19T04:16:06;9.90;99.90
6291;DHT22;3178;48.730;8.990;2023-03-19T04:18:33;9.90;99.90
6291;DHT22;3178;48.730;8.990;2023-03-19T04:20:59;9.80;99.90
6291;DHT22;3178;48.730;8.990;2023-03-19T04:23:25;9.80;99.90
6291;DHT22;3178;48.730;8.990;2023-03-19T04:25:50;9.90;99.90
6291;DHT22;3178;48.730;8.990;2023-03-19T04:28:16;9.80;99.90
6291;DHT22;3178;48.730;8.990;2023-03-19T04:30:42;9.80;99.90
6291;DHT22;3178;48.730;8.990;2023-03-19T04:33:09;9.80;99.90
6291;DHT22;3178;48.730;8.990;2023-03-19T04:35:35;9.80;99.90
6291;DHT22;3178;48.730;8.990;2023-03-19T04:38:01;9.80;99.90
6291;DHT22;3178;48.730;8.990;2023-03-19T04:40:27;9.80;99.90
6291;DHT22;3178;48.730;8.990;2023-03-19T04:42:52;9.80;99.90
6291;DHT22;3178;48.730;8.990;2023-03-19T04:45:19;9.80;99.90
6291;DHT22;3178;48.730;8.990;2023-03-19T04:47:45;9.80;99.90
6291;DHT22;3178;48.730;8.990;2023-03-19T04:50:11;9.80;99.90
6291;DHT22;3178;48.730;8.990;2023-03-19T04:52:37;9.80;99.90
6291;DHT22;3178;48.730;8.990;2023-03-19T04:55:05;9.80;99.90
6291;DHT22;3178;48.730;8.990;2023-03-19T04:57:31;9.80;99.90
6291;DHT22;3178;48.730;8.990;2023-03-19T04:59:57;9.90;99.90
6291;DHT22;3178;48.730;8.990;2023-03-19T05:02:23;9.80;99.90
6291;DHT22;3178;48.730;8.990;2023-03-19T05:04:49;9.80;99.90
6291;DHT22;3178;48.730;8.990;2023-03-19T05:07:14;9.80;99.90
6291;DHT22;3178;48.730;8.990;2023-03-19T05:09:40;9.80;99.90
6291;DHT22;3178;48.730;8.990;2023-03-19T05:12:09;9.80;99.90
6291;DHT22;3178;48.730;8.990;2023-03-19T05:14:35;9.80;99.90
6291;DHT22;3178;48.730;8.990;2023-03-19T05:17:01;9.80;99.90
6291;DHT22;3178;48.730;8.990;2023-03-19T05:19:27;9.70;99.90
6291;DHT22;3178;48.730;8.990;2023-03-19T05:21:53;9.70;99.90
6291;DHT22;3178;48.730;8.990;2023-03-19T05:24:18;9.70;99.90
6291;DHT22;3178;48.730;8.990;2023-03-19T05:26:44;9.70;99.90
6291;DHT22;3178;48.730;8.990;2023-03-19T05:29:10;9.70;99.90
6291;DHT22;3178;48.730;8.990;2023-03-19T05:31:37;9.70;99.90
6291;DHT22;3178;48.730;8.990;2023-03-19T05:34:03;9.70;99.90
6291;DHT22;3178;48.730;8.990;2023-03-19T05:36:28;9.70;99.90
6291;DHT22;3178;48.730;8.990;2023-03-19T05:38:55;9.70;99.90
6291;DHT22;3178;48.730;8.990;2023-03-19T05:41:21;9.80;99.90
6291;DHT22;3178;48.730;8.990;2023-03-19T05:43:46;9.80;99.90
6291;DHT22;3178;48.730;8.990;2023-03-19T05:46:12;9.80;99.90
6291;DHT22;3178;48.730;8.990;2023-03-19T05:48:37;9.70;99.90
6291;DHT22;3178;48.730;8.990;2023-03-19T05:51:03;9.70;99.90
6291;DHT22;3178;48.730;8.990;2023-03-19T05:53:29;9.70;99.90
6291;DHT22;3178;48.730;8.990;2023-03-19T05:55:54;9.70;99.90
6291;DHT22;3178;48.730;8.990;2023-03-19T05:58:20;9.70;99.90
6291;DHT22;3178;48.730;8.990;2023-03-19T06:00:46;9.70;99.90
6291;DHT22;3178;48.730;8.990;2023-03-19T06:03:13;9.70;99.90
6291;DHT22;3178;48.730;8.990;2023-03-19T06:05:39;9.70;99.90
6291;DHT22;3178;48.730;8.990;2023-03-19T06:08:04;9.70;99.90
6291;DHT22;3178;48.730;8.990;2023-03-19T06:10:31;9.80;99.90
6291;DHT22;3178;48.730;8.990;2023-03-19T06:12:56;9.80;99.90
6291;DHT22;3178;48.730;8.990;2023-03-19T06:15:22;9.80;99.90
6291;DHT22;3178;48.730;8.990;2023-03-19T06:17:47;9.70;99.90
6291;DHT22;3178;48.730;8.990;2023-03-19T06:20:13;9.80;99.90
6291;DHT22;3178;48.730;8.990;2023-03-19T06:22:39;9.80;99.90
6291;DHT22;3178;48.730;8.990;2023-03-19T06:25:05;9.80;99.90
6291;DHT22;3178;48.730;8.990;2023-03-19T06:27:31;9.80;99.90
6291;DHT22;3178;48.730;8.990;2023-03-19T06:29:56;9.80;99.90
6291;DHT22;3178;48.730;8.990;2023-03-19T06:32:22;9.90;99.90
6291;DHT22;3178;48.730;8.990;2023-03-19T06:34:47;9.90;99.90
6291;DHT22;3178;48.730;8.990;2023-03-19T06:37:13;9.90;99.90
6291;DHT22;3178;48.730;8.990;2023-03-19T06:39:38;9.90;99.90
6291;DHT22;3178;48.730;8.990;2023-03-19T06:42:04;9.90;99.90
6291;DHT22;3178;48.730;8.990;2023-03-19T06:44:29;9.80;99.90
6291;DHT22;3178;48.730;8.990;2023-03-19T06:46:55;9.80;99.90
6291;DHT22;3178;48.730;8.990;2023-03-19T06:49:20;9.80;99.90
6291;DHT22;3178;48.730;8.990;2023-03-19T06:51:46;9.80;99.90
6291;DHT22;3178;48.730;8.990;2023-03-19T06:54:11;9.70;99.90
6291;DHT22;3178;48.730;8.990;2023-03-19T06:56:37;9.80;99.90
6291;DHT22;3178;48.730;8.990;2023-03-19T06:59:02;9.70;99.90
6291;DHT22;3178;48.730;8.990;2023-03-19T07:01:28;9.80;99.90
6291;DHT22;3178;48.730;8.990;2023-03-19T07:03:53;9.80;99.90
6291;DHT22;3178;48.730;8.990;2023-03-19T07:06:20;9.80;99.90
6291;DHT22;3178;48.730;8.990;2023-03-19T07:08:45;9.80;99.90
6291;DHT22;3178;48.730;8.990;2023-03-19T07:11:12;9.80;99.90
6291;DHT22;3178;48.730;8.990;2023-03-19T07:13:38;9.90;99.90
6291;DHT22;3178;48.730;8.990;2023-03-19T07:16:04;9.90;99.90
6291;DHT22;3178;48.730;8.990;2023-03-19T07:18:30;9.90;99.90
6291;DHT22;3178;48.730;8.990;2023-03-19T07:20:56;10.00;99.90
6291;DHT22;3178;48.730;8.990;2023-03-19T07:23:21;10.00;99.90
6291;DHT22;3178;48.730;8.990;2023-03-19T07:25:47;10.10;99.90
6291;DHT22;3178;48.730;8.990;2023-03-19T07:28:13;10.10;99.90
6291;DHT22;3178;48.730;8.990;2023-03-19T07:30:39;10.10;99.90
6291;DHT22;3178;48.730;8.990;2023-03-19T07:33:06;10.10;99.90
6291;DHT22;3178;48.730;8.990;2023-03-19T07:35:32;10.20;99.90
6291;DHT22;3178;48.730;8.990;2023-03-19T07:37:58;10.20;99.90
6291;DHT22;3178;48.730;8.990;2023-03-19T07:40:25;10.20;99.90
6291;DHT22;3178;48.730;8.990;2023-03-19T07:42:51;10.30;99.90
6291;DHT22;3178;48.730;8.990;2023-03-19T07:45:17;10.30;99.90
6291;DHT22;3178;48.730;8.990;2023-03-19T07:47:43;10.40;99.90
6291;DHT22;3178;48.730;8.990;2023-03-19T07:50:09;10.40;99.90
6291;DHT22;3178;48.730;8.990;2023-03-19T07:52:35;10.40;99.90
6291;DHT22;3178;48.730;8.990;2023-03-19T07:55:01;10.60;99.90
6291;DHT22;3178;48.730;8.990;2023-03-19T07:57:26;10.50;99.90
6291;DHT22;3178;48.730;8.990;2023-03-19T07:59:52;10.50;99.90
6291;DHT22;3178;48.730;8.990;2023-03-19T08:02:18;10.50;99.90
6291;DHT22;3178;48.730;8.990;2023-03-19T08:04:43;10.50;99.90
6291;DHT22;3178;48.730;8.990;2023-03-19T08:07:09;10.60;99.90
6291;DHT22;3178;48.730;8.990;2023-03-19T08:09:37;10.60;99.90
6291;DHT22;3178;48.730;8.990;2023-03-19T08:12:04;10.70;99.90
6291;DHT22;3178;48.730;8.990;2023-03-19T08:14:31;10.70;99.90
6291;DHT22;3178;48.730;8.990;2023-03-19T08:16:56;10.70;99.90
6291;DHT22;3178;48.730;8.990;2023-03-19T08:19:22;10.80;99.90
6291;DHT22;3178;48.730;8.990;2023-03-19T08:21:47;10.80;99.90
6291;DHT22;3178;48.730;8.990;2023-03-19T08:24:13;10.90;99.90
6291;DHT22;3178;48.730;8.990;2023-03-19T08:26:39;10.90;99.90
6291;DHT22;3178;48.730;8.990;2023-03-19T08:29:04;10.90;99.90
6291;DHT22;3178;48.730;8.990;2023-03-19T08:31:31;11.00;99.90
6291;DHT22;3178;48.730;8.990;2023-03-19T08:33:57;11.10;99.90
6291;DHT22;3178;48.730;8.990;2023-03-19T08:36:25;11.10;99.90
6291;DHT22;3178;48.730;8.990;2023-03-19T08:38:51;11.30;99.90
6291;DHT22;3178;48.730;8.990;2023-03-19T08:41:22;11.40;99.90
6291;DHT22;3178;48.730;8.990;2023-03-19T08:43:47;11.60;99.90
6291;DHT22;3178;48.730;8.990;2023-03-19T08:46:13;11.90;99.90
6291;DHT22;3178;48.730;8.990;2023-03-19T08:48:39;12.20;99.90
6291;DHT22;3178;48.730;8.990;2023-03-19T08:51:05;12.30;99.90
6291;DHT22;3178;48.730;8.990;2023-03-19T08:53:31;12.50;99.90
6291;DHT22;3178;48.730;8.990;2023-03-19T08:55:59;12.60;99.90
6291;DHT22;3178;48.730;8.990;2023-03-19T08:58:26;12.90;99.90
6291;DHT22;3178;48.730;8.990;2023-03-19T09:00:53;13.20;99.90
6291;DHT22;3178;48.730;8.990;2023-03-19T09:03:24;13.30;99.90
6291;DHT22;3178;48.730;8.990;2023-03-19T09:05:50;13.30;99.90
6291;DHT22;3178;48.730;8.990;2023-03-19T09:08:16;13.20;99.90
6291;DHT22;3178;48.730;8.990;2023-03-19T09:10:41;13.20;99.90
6291;DHT22;3178;48.730;8.990;2023-03-19T09:13:07;13.20;99.90
6291;DHT22;3178;48.730;8.990;2023-03-19T09:15:32;13.20;99.90
6291;DHT22;3178;48.730;8.990;2023-03-19T09:17:58;13.20;99.90
6291;DHT22;3178;48.730;8.990;2023-03-19T09:20:23;13.10;99.90
6291;DHT22;3178;48.730;8.990;2023-03-19T09:22:49;13.20;99.90
6291;DHT22;3178;48.730;8.990;2023-03-19T09:25:15;13.20;99.90
6291;DHT22;3178;48.730;8.990;2023-03-19T09:27:40;13.20;99.90
6291;DHT22;3178;48.730;8.990;2023-03-19T09:30:06;13.30;99.90
6291;DHT22;3178;48.730;8.990;2023-03-19T09:32:34;13.30;99.90
6291;DHT22;3178;48.730;8.990;2023-03-19T09:35:00;13.30;99.90
6291;DHT22;3178;48.730;8.990;2023-03-19T09:37:26;13.30;99.90
6291;DHT22;3178;48.730;8.990;2023-03-19T09:39:51;13.30;99.90
6291;DHT22;3178;48.730;8.990;2023-03-19T09:44:56;13.60;99.90
6291;DHT22;3178;48.730;8.990;2023-03-19T09:47:32;13.90;99.90
6291;DHT22;3178;48.730;8.990;2023-03-19T09:50:11;14.20;99.90
6291;DHT22;3178;48.730;8.990;2023-03-19T09:52:50;14.20;99.90
6291;DHT22;3178;48.730;8.990;2023-03-19T09:55:27;14.30;99.90
6291;DHT22;3178;48.730;8.990;2023-03-19T09:57:56;14.40;99.90
6291;DHT22;3178;48.730;8.990;2023-03-19T10:00:33;14.60;99.90
6291;DHT22;3178;48.730;8.990;2023-03-19T10:03:21;14.80;99.90
6291;DHT22;3178;48.730;8.990;2023-03-19T10:06:06;15.10;99.90
6291;DHT22;3178;48.730;8.990;2023-03-19T10:14:44;16.10;99.90
6291;DHT22;3178;48.730;8.990;2023-03-19T10:17:18;16.30;99.90
6291;DHT22;3178;48.730;8.990;2023-03-19T10:19:57;16.30;99.90
6291;DHT22;3178;48.730;8.990;2023-03-19T10:22:32;16.50;99.90
6291;DHT22;3178;48.730;8.990;2023-03-19T10:25:00;16.60;99.90
6291;DHT22;3178;48.730;8.990;2023-03-19T10:27:27;16.80;99.90
6291;DHT22;3178;48.730;8.990;2023-03-19T10:29:54;16.90;99.90
6291;DHT22;3178;48.730;8.990;2023-03-19T10:32:37;17.10;99.90
6291;DHT22;3178;48.730;8.990;2023-03-19T10:35:26;16.90;99.90
6291;DHT22;3178;48.730;8.990;2023-03-19T10:38:11;16.90;99.90
6291;DHT22;3178;48.730;8.990;2023-03-19T10:40:47;16.70;99.90
6291;DHT22;3178;48.730;8.990;2023-03-19T10:43:19;16.80;99.90
6291;DHT22;3178;48.730;8.990;2023-03-19T10:45:46;16.80;99.90
6291;DHT22;3178;48.730;8.990;2023-03-19T10:48:16;16.70;99.90
6291;DHT22;3178;48.730;8.990;2023-03-19T10:50:57;16.90;99.90
6291;DHT22;3178;48.730;8.990;2023-03-19T10:53:34;17.00;99.90
6291;DHT22;3178;48.730;8.990;2023-03-19T10:56:20;17.20;99.90
6291;DHT22;3178;48.730;8.990;2023-03-19T11:01:37;17.60;99.90
6291;DHT22;3178;48.730;8.990;2023-03-19T11:04:12;17.80;99.90
6291;DHT22;3178;48.730;8.990;2023-03-19T11:06:39;18.00;99.90
6291;DHT22;3178;48.730;8.990;2023-03-19T11:12:21;17.80;99.90
6291;DHT22;3178;48.730;8.990;2023-03-19T11:14:53;17.70;99.90
6291;DHT22;3178;48.730;8.990;2023-03-19T11:19:57;17.40;98.90
6291;DHT22;3178;48.730;8.990;2023-03-19T11:22:26;17.40;99.30
6291;DHT22;3178;48.730;8.990;2023-03-19T11:24:59;17.40;99.80
6291;DHT22;3178;48.730;8.990;2023-03-19T11:27:28;17.30;99.90
6291;DHT22;3178;48.730;8.990;2023-03-19T11:29:54;17.60;99.90
6291;DHT22;3178;48.730;8.990;2023-03-19T11:32:57;18.10;99.90
6291;DHT22;3178;48.730;8.990;2023-03-19T11:35:33;18.70;98.90
6291;DHT22;3178;48.730;8.990;2023-03-19T11:38:02;18.90;97.00
6291;DHT22;3178;48.730;8.990;2023-03-19T11:46:03;18.40;98.00
6291;DHT22;3178;48.730;8.990;2023-03-19T11:48:52;18.20;97.50
6291;DHT22;3178;48.730;8.990;2023-03-19T11:56:52;17.60;98.70
6291;DHT22;3178;48.730;8.990;2023-03-19T12:02:19;17.80;98.40
6291;DHT22;3178;48.730;8.990;2023-03-19T12:05:07;17.60;98.70
6291;DHT22;3178;48.730;8.990;2023-03-19T12:07:39;17.40;98.90
6291;DHT22;3178;48.730;8.990;2023-03-19T12:10:41;17.30;98.60
6291;DHT22;3178;48.730;8.990;2023-03-19T12:13:30;17.10;97.80
6291;DHT22;3178;48.730;8.990;2023-03-19T12:18:56;16.90;99.50
6291;DHT22;3178;48.730;8.990;2023-03-19T12:21:38;16.80;99.80
6291;DHT22;3178;48.730;8.990;2023-03-19T12:35:16;16.60;99.90
6291;DHT22;3178;48.730;8.990;2023-03-19T12:42:49;16.40;99.90
6291;DHT22;3178;48.730;8.990;2023-03-19T12:45:28;16.30;99.90
6291;DHT22;3178;48.730;8.990;2023-03-19T12:48:32;16.10;99.90
6291;DHT22;3178;48.730;8.990;2023-03-19T12:50:51;16.00;99.90
6291;DHT22;3178;48.730;8.990;2023-03-19T12:53:49;15.70;99.90
6291;DHT22;3178;48.730;8.990;2023-03-19T12:59:15;15.50;99.90
6291;DHT22;3178;48.730;8.990;2023-03-19T13:01:52;15.10;99.90
6291;DHT22;3178;48.730;8.990;2023-03-19T13:04:28;15.00;99.90
6291;DHT22;3178;48.730;8.990;2023-03-19T13:07:10;14.90;99.90
6291;DHT22;3178;48.730;8.990;2023-03-19T13:09:44;15.00;99.90
6291;DHT22;3178;48.730;8.990;2023-03-19T13:17:44;14.80;99.90
6291;DHT22;3178;48.730;8.990;2023-03-19T13:23:04;14.80;99.90
6291;DHT22;3178;48.730;8.990;2023-03-19T13:25:36;14.80;99.90
6291;DHT22;3178;48.730;8.990;2023-03-19T13:28:09;14.80;99.90
6291;DHT22;3178;48.730;8.990;2023-03-19T13:30:35;14.80;99.90
6291;DHT22;3178;48.730;8.990;2023-03-19T13:33:20;14.80;99.90
6291;DHT22;3178;48.730;8.990;2023-03-19T13:35:51;14.80;99.90
6291;DHT22;3178;48.730;8.990;2023-03-19T13:38:25;14.80;99.90
6291;DHT22;3178;48.730;8.990;2023-03-19T13:40:53;14.70;99.90
6291;DHT22;3178;48.730;8.990;2023-03-19T13:53:42;14.60;99.90
6291;DHT22;3178;48.730;8.990;2023-03-19T13:56:16;14.60;99.90
6291;DHT22;3178;48.730;8.990;2023-03-19T13:58:54;14.70;99.90
6291;DHT22;3178;48.730;8.990;2023-03-19T14:01:38;14.70;99.90
6291;DHT22;3178;48.730;8.990;2023-03-19T14:04:14;14.80;99.90
6291;DHT22;3178;48.730;8.990;2023-03-19T14:06:43;14.80;99.90
6291;DHT22;3178;48.730;8.990;2023-03-19T14:09:41;14.80;99.90
6291;DHT22;3178;48.730;8.990;2023-03-19T14:17:37;14.70;99.90
6291;DHT22;3178;48.730;8.990;2023-03-19T14:25:54;14.60;99.90
6291;DHT22;3178;48.730;8.990;2023-03-19T14:31:21;14.60;99.90
6291;DHT22;3178;48.730;8.990;2023-03-19T14:34:01;14.50;99.90
6291;DHT22;3178;48.730;8.990;2023-03-19T14:36:29;14.50;99.90
6291;DHT22;3178;48.730;8.990;2023-03-19T14:39:02;14.40;99.90
6291;DHT22;3178;48.730;8.990;2023-03-19T14:41:34;14.20;99.90
6291;DHT22;3178;48.730;8.990;2023-03-19T14:49:47;14.00;99.90
6291;DHT22;3178;48.730;8.990;2023-03-19T14:52:33;14.10;99.90
6291;DHT22;3178;48.730;8.990;2023-03-19T14:55:06;14.10;99.90
6291;DHT22;3178;48.730;8.990;2023-03-19T14:57:34;14.10;99.90
6291;DHT22;3178;48.730;8.990;2023-03-19T15:00:00;14.10;99.90
6291;DHT22;3178;48.730;8.990;2023-03-19T15:04:58;14.00;99.90
6291;DHT22;3178;48.730;8.990;2023-03-19T15:07:31;14.00;99.90
6291;DHT22;3178;48.730;8.990;2023-03-19T15:10:00;13.90;99.90
6291;DHT22;3178;48.730;8.990;2023-03-19T15:12:46;14.00;99.90
6291;DHT22;3178;48.730;8.990;2023-03-19T15:18:04;14.00;99.90
6291;DHT22;3178;48.730;8.990;2023-03-19T15:20:38;14.10;99.90
6291;DHT22;3178;48.730;8.990;2023-03-19T15:23:09;14.00;99.90
6291;DHT22;3178;48.730;8.990;2023-03-19T15:25:46;13.90;99.90
6291;DHT22;3178;48.730;8.990;2023-03-19T15:28:14;13.90;99.90
6291;DHT22;3178;48.730;8.990;2023-03-19T15:30:41;13.90;99.90
6291;DHT22;3178;48.730;8.990;2023-03-19T15:33:21;13.80;99.90
6291;DHT22;3178;48.730;8.990;2023-03-19T15:38:31;13.80;99.90
6291;DHT22;3178;48.730;8.990;2023-03-19T15:40:57;13.80;99.90
6291;DHT22;3178;48.730;8.990;2023-03-19T15:43:24;13.70;99.90
6291;DHT22;3178;48.730;8.990;2023-03-19T15:45:52;13.70;99.90
6291;DHT22;3178;48.730;8.990;2023-03-19T15:48:36;13.60;99.90
6291;DHT22;3178;48.730;8.990;2023-03-19T15:51:04;13.50;99.90
6291;DHT22;3178;48.730;8.990;2023-03-19T15:53:32;13.40;99.90
6291;DHT22;3178;48.730;8.990;2023-03-19T15:56:01;13.30;99.90
6291;DHT22;3178;48.730;8.990;2023-03-19T15:58:29;13.30;99.90
6291;DHT22;3178;48.730;8.990;2023-03-19T16:00:57;13.30;99.90
6291;DHT22;3178;48.730;8.990;2023-03-19T16:03:40;13.30;99.90
6291;DHT22;3178;48.730;8.990;2023-03-19T16:06:35;13.20;99.90
6291;DHT22;3178;48.730;8.990;2023-03-19T16:09:30;13.20;99.90
6291;DHT22;3178;48.730;8.990;2023-03-19T16:11:57;13.10;99.90
6291;DHT22;3178;48.730;8.990;2023-03-19T16:17:24;13.10;99.90
6291;DHT22;3178;48.730;8.990;2023-03-19T16:19:53;13.10;99.90
6291;DHT22;3178;48.730;8.990;2023-03-19T16:22:22;13.00;99.90
6291;DHT22;3178;48.730;8.990;2023-03-19T16:24:49;13.00;99.90
6291;DHT22;3178;48.730;8.990;2023-03-19T16:27:18;13.00;99.90
6291;DHT22;3178;48.730;8.990;2023-03-19T16:29:46;13.00;99.90
6291;DHT22;3178;48.730;8.990;2023-03-19T16:32:19;13.00;99.90
6291;DHT22;3178;48.730;8.990;2023-03-19T16:34:50;13.00;99.90
6291;DHT22;3178;48.730;8.990;2023-03-19T16:37:32;12.90;99.90
6291;DHT22;3178;48.730;8.990;2023-03-19T16:42:54;12.90;99.90
6291;DHT22;3178;48.730;8.990;2023-03-19T16:45:31;12.90;99.90
6291;DHT22;3178;48.730;8.990;2023-03-19T16:47:58;12.90;99.90
6291;DHT22;3178;48.730;8.990;2023-03-19T16:50:34;12.80;99.90
6291;DHT22;3178;48.730;8.990;2023-03-19T16:53:01;12.80;99.90
6291;DHT22;3178;48.730;8.990;2023-03-19T16:55:33;12.80;99.90
6291;DHT22;3178;48.730;8.990;2023-03-19T17:00:31;12.70;99.90
6291;DHT22;3178;48.730;8.990;2023-03-19T17:02:57;12.60;99.90
6291;DHT22;3178;48.730;8.990;2023-03-19T17:05:24;12.60;99.90
6291;DHT22;3178;48.730;8.990;2023-03-19T17:07:51;12.60;99.90
6291;DHT22;3178;48.730;8.990;2023-03-19T17:10:18;12.50;99.90
6291;DHT22;3178;48.730;8.990;2023-03-19T17:12:47;12.50;99.90
6291;DHT22;3178;48.730;8.990;2023-03-19T17:15:25;12.50;99.90
6291;DHT22;3178;48.730;8.990;2023-03-19T17:17:51;12.40;99.90
6291;DHT22;3178;48.730;8.990;2023-03-19T17:20:29;12.30;99.90
6291;DHT22;3178;48.730;8.990;2023-03-19T17:22:56;12.20;99.90
6291;DHT22;3178;48.730;8.990;2023-03-19T17:25:22;12.20;99.90
6291;DHT22;3178;48.730;8.990;2023-03-19T17:27:48;12.10;99.90
6291;DHT22;3178;48.730;8.990;2023-03-19T17:30:14;12.10;99.90
6291;DHT22;3178;48.730;8.990;2023-03-19T17:32:43;12.10;99.90
6291;DHT22;3178;48.730;8.990;2023-03-19T17:35:18;12.10;99.90
6291;DHT22;3178;48.730;8.990;2023-03-19T17:37:45;12.00;99.90
6291;DHT22;3178;48.730;8.990;2023-03-19T17:40:19;11.90;99.90
6291;DHT22;3178;48.730;8.990;2023-03-19T17:42:45;11.90;99.90
6291;DHT22;3178;48.730;8.990;2023-03-19T17:45:13;11.90;99.90
6291;DHT22;3178;48.730;8.990;2023-03-19T17:47:39;11.90;99.90
6291;DHT22;3178;48.730;8.990;2023-03-19T17:50:05;11.80;99.90
6291;DHT22;3178;48.730;8.990;2023-03-19T17:52:32;11.80;99.90
6291;DHT22;3178;48.730;8.990;2023-03-19T17:55:00;11.80;99.90
6291;DHT22;3178;48.730;8.990;2023-03-19T17:57:26;11.80;99.90
6291;DHT22;3178;48.730;8.990;2023-03-19T17:59:52;11.80;99.90
6291;DHT22;3178;48.730;8.990;2023-03-19T18:02:26;11.70;99.90
6291;DHT22;3178;48.730;8.990;2023-03-19T18:04:52;11.70;99.90
6291;DHT22;3178;48.730;8.990;2023-03-19T18:07:18;11.60;99.90
6291;DHT22;3178;48.730;8.990;2023-03-19T18:09:44;11.60;99.90
6291;DHT22;3178;48.730;8.990;2023-03-19T18:12:10;11.60;99.90